CheckWX is a tool to help pilots better visualize weather data.  It is not intended as a substitute for an official pre-flight weather briefing.

07:12:03 UTC

LFRI TAF
La Roche-sur-Yon Airport
La Roche-sur-Yon/Les Ajoncs, France
TAF LFRI 200500Z 2006/2106 36005KT 9999 SCT020 BKN040 PROB30 TEMPO 2006/2008 BKN012 BECMG 2012/2015 30010KT CAVOK BECMG 2022/2024 02005KT

Jun-20@
06:00 UTC

Jun-20 @ 06:00 UTC

Jun-20@
12:00 UTC

Jun-20 @ 12:00 UTC

TAF LFRI 200500Z 2006/2106 36005KT 9999 SCT020 BKN040
Wind
  • 360° at 5 KTS
Cloud Levels
  • Scattered at 2,000' AGL
  • Broken at 4,000' AGL

Jun-20@
06:00 UTC

Jun-20 @ 06:00 UTC

Jun-20@
08:00 UTC

Jun-20 @ 08:00 UTC

PROB30 TEMPO 2006/2008 BKN012

Temporary - 30% Likelihood

Temporary - 30% Likelihood during this time.

Cloud Levels
  • Broken at 1,200' AGL

Jun-20@
12:00 UTC

Jun-20 @ 12:00 UTC

Jun-20@
22:00 UTC

Jun-20 @ 22:00 UTC

BECMG 2012/2015 30010KT CAVOK

Becoming

Becoming Conditions expected by Thu, Jun 20, 2019 @ 15:00 UTC

Wind
  • 300° at 10 KTS
Conditions
No significant weather
Cloud Levels
  • No significant clouds

Jun-20@
22:00 UTC

Jun-20 @ 22:00 UTC

Jun-21@
06:00 UTC

Jun-21 @ 06:00 UTC

BECMG 2022/2024 02005KT

Becoming

Becoming Conditions expected by Fri, Jun 21, 2019 @ 00:00 UTC

Wind
  • 020° at 5 KTS
Conditions
No significant weather
Cloud Levels
  • No significant clouds